Watseka, Illinois
Current Conditions -  °F | °C
As of 8:35 PM on Thursday 20 Nov 2014 (Local Time) from KIKK Reporting Station
Clear Clear  
Wind Chill: 10°   Ceiling: Unl
Heat Index: 19°   Visibility: 10mi
Dew Point:   Wind: 7mph
Humidity: 62%   Direction: 280°W
Pressure: 30.26"   Gusts: NA
Location:  40.78°N, 87.74°W
Report Text: KIKK 210235Z AUTO 28006KT 10SM CLR M07/M13 A3026 RMK AO2 T10721133
Loading
Personal Weather Stations






























Interactive Weather Map New forecast layout! Learn more

10-Day Weather Forecast

Advertisements
Track Severe Weather on mobile